Liberty Grace — WADN — position and weather

sailwx.info

Track history (hours):
 
Tides and Currents Weather Stations Pressure Air Temp Water Temp Dewpoint Dewpoint Depression Visibility Wind Speed Wind Dir Waves Ship Positions

Liberty Grace

Owner: Liberty Shipping Group, LLC, LAKE SUCCESS, NY. More information available from US FCC via Universal Licensing System and Coast Guard Vessel Documentation Center.

Last reported at 2015-May-16 23:32 UTC. Time now 2015-May-25 11:32 UTC.
Position N 31°23' E 032°20'.
Warning: this ship's position is 8 days out of date.

Type: Cargo ship. MMSI: 338219000.

Date/timePositionNaut miles runAvg speedWind from/ knotsBaromVisibWave heightAir tempDewpointWater temp
2015-May-16 23:32N 31°23' E 032°20'1 0.6
2015-May-16 21:22N 31°23' E 032°18'0 0.0
2015-May-16 18:31N 31°23' E 032°18'0 0.2
2015-May-16 17:28N 31°23' E 032°18'5 5.6
2015-May-16 16:32N 31°27' E 032°15'10 9.9
2015-May-16 15:33N 31°35' E 032°09'1211.8
2015-May-16 14:33N 31°44' E 031°59'9 9.2
2015-May-16 13:32N 31°47' E 031°49'8812.3
2015-May-16 06:25N 32°16' E 030°11'2713.1
2015-May-16 04:20N 32°23' E 029°39'9213.3
2015-May-15 21:25N 32°49' E 027°54'52214.1
2015-May-14 08:21N 35°29' E 017°54'1615.4
2015-May-14 07:19N 35°33' E 017°35'6114.6
2015-May-14 03:07N 35°52' E 016°23'1015.0
2015-May-14 02:27N 35°55' E 016°11'1415.2
2015-May-14 01:32N 35°59' E 015°55'1615.4
2015-May-14 00:32N 36°04' E 015°37'2015.5
2015-May-13 23:14N 36°10' E 015°13'1315.1
2015-May-13 22:21N 36°14' E 014°57'1215.3
2015-May-13 21:33N 36°17' E 014°43'1514.9
2015-May-13 20:33N 36°23' E 014°26'1514.9
2015-May-13 19:33N 36°27' E 014°08'1515.0
2015-May-13 18:33N 36°31' E 013°50'1515.1
2015-May-13 17:33N 36°36' E 013°32'1514.9
2015-May-13 16:33N 36°41' E 013°15'1514.6
2015-May-13 15:33N 36°45' E 012°57'1414.5
2015-May-13 14:33N 36°48' E 012°40'1414.5
2015-May-13 13:33N 36°53' E 012°23'1514.7
2015-May-13 12:33N 36°59' E 012°05'1514.6
2015-May-13 11:33N 37°05' E 011°49'1515.0
2015-May-13 10:33N 37°12' E 011°32'1515.1
2015-May-13 09:33N 37°19' E 011°15'1515.0
2015-May-13 08:33N 37°24' E 010°58'1515.1
2015-May-13 07:33N 37°29' E 010°40'1515.4
2015-May-13 06:33N 37°33' E 010°21'1515.4
2015-May-13 05:33N 37°34' E 010°02'1515.3
2015-May-13 04:33N 37°29' E 009°43'3015.3
2015-May-13 02:33N 37°19' E 009°07'1515.1
2015-May-13 01:33N 37°17' E 008°48'1615.2
2015-May-13 00:31N 37°17' E 008°28'1515.6
2015-May-12 23:33N 37°18' E 008°10'1715.3
2015-May-12 22:25N 37°18' E 007°48'18115.3
2015-May-12 10:32N 37°09' E 004°01'1515.1
2015-May-12 09:33N 37°06' E 003°42'1515.3
2015-May-12 08:33N 37°04' E 003°23'1615.5
2015-May-12 07:33N 37°02' E 003°04'1615.5
2015-May-12 06:31N 36°60' E 002°44'1615.1
2015-May-12 05:26N 36°56' E 002°24'1315.0
2015-May-12 04:33N 36°53' E 002°08'1515.0
2015-May-12 03:33N 36°51' E 001°50'1515.3
2015-May-12 02:33N 36°48' E 001°31'1615.8
2015-May-12 01:33N 36°46' E 001°11'1815.7
2015-May-12 00:24N 36°44' E 000°49'1315.1
2015-May-11 23:34N 36°42' E 000°33'1514.8
2015-May-11 22:33N 36°41' E 000°15'1514.6
2015-May-11 21:33N 36°38' W 000°03'1414.3
2015-May-11 20:33N 36°36' W 000°21'1414.1
2015-May-11 19:33N 36°34' W 000°38'1414.1
2015-May-11 18:33N 36°32' W 000°56'1413.8
2015-May-11 17:33N 36°30' W 001°13'1414.0
2015-May-11 16:33N 36°28' W 001°30'3113.7
2015-May-11 14:18N 36°24' W 002°08'1013.6
2015-May-11 13:34N 36°22' W 002°20'1413.9
2015-May-11 12:33N 36°20' W 002°37'1413.8
2015-May-11 11:31N 36°17' W 002°55'11614.6
2015-May-11 03:34N 35°60' W 005°17'10114.1
2015-May-10 20:26N 35°43' W 007°19'1314.7
2015-May-10 19:33N 35°41' W 007°35'1515.1
2015-May-10 18:33N 35°38' W 007°53'3614.8
2015-May-10 16:08N 35°31' W 008°37'814.7
2015-May-10 15:33N 35°29' W 008°47'11714.3
2015-May-10 07:22N 35°06' W 011°07'2513.8
2015-May-10 05:33N 35°00' W 011°37'1813.7
2015-May-10 04:14N 34°56' W 011°58'1013.9
2015-May-10 03:32N 34°54' W 012°10'1913.8
2015-May-10 02:07N 34°49' W 012°33'18913.4
2015-May-09 12:00N 34°12' W 016°18'58814.0 230 / 161024.610.8 0.520.010.921.0
2015-May-07 18:00N 32°00' W 027°42'   360 / 91020.010.8 0.522.017.221.0
Track history (hours):
 
Tides and Currents Weather Stations Pressure Air Temp Water Temp Dewpoint Dewpoint Depression Visibility Wind Speed Wind Dir Waves Ship Positions

Liberty Grace

Owner: Liberty Shipping Group, LLC, LAKE SUCCESS, NY. More information available from US FCC via Universal Licensing System and Coast Guard Vessel Documentation Center.

Last reported at 2015-May-16 23:32 UTC. Time now 2015-May-25 11:32 UTC.
Position N 31°23' E 032°20'.
Warning: this ship's position is 8 days out of date.

Type: Cargo ship. MMSI: 338219000.

Date/timePositionNaut miles runAvg speedWind from/ knotsBaromVisibWave heightAir tempDewpointWater temp
2015-May-16 23:32N 31°23' E 032°20'1 0.6
2015-May-16 21:22N 31°23' E 032°18'0 0.0
2015-May-16 18:31N 31°23' E 032°18'0 0.2
2015-May-16 17:28N 31°23' E 032°18'5 5.6
2015-May-16 16:32N 31°27' E 032°15'10 9.9
2015-May-16 15:33N 31°35' E 032°09'1211.8
2015-May-16 14:33N 31°44' E 031°59'9 9.2
2015-May-16 13:32N 31°47' E 031°49'8812.3
2015-May-16 06:25N 32°16' E 030°11'2713.1
2015-May-16 04:20N 32°23' E 029°39'9213.3
2015-May-15 21:25N 32°49' E 027°54'52214.1
2015-May-14 08:21N 35°29' E 017°54'1615.4
2015-May-14 07:19N 35°33' E 017°35'6114.6
2015-May-14 03:07N 35°52' E 016°23'1015.0
2015-May-14 02:27N 35°55' E 016°11'1415.2
2015-May-14 01:32N 35°59' E 015°55'1615.4
2015-May-14 00:32N 36°04' E 015°37'2015.5
2015-May-13 23:14N 36°10' E 015°13'1315.1
2015-May-13 22:21N 36°14' E 014°57'1215.3
2015-May-13 21:33N 36°17' E 014°43'1514.9
2015-May-13 20:33N 36°23' E 014°26'1514.9
2015-May-13 19:33N 36°27' E 014°08'1515.0
2015-May-13 18:33N 36°31' E 013°50'1515.1
2015-May-13 17:33N 36°36' E 013°32'1514.9
2015-May-13 16:33N 36°41' E 013°15'1514.6
2015-May-13 15:33N 36°45' E 012°57'1414.5
2015-May-13 14:33N 36°48' E 012°40'1414.5
2015-May-13 13:33N 36°53' E 012°23'1514.7
2015-May-13 12:33N 36°59' E 012°05'1514.6
2015-May-13 11:33N 37°05' E 011°49'1515.0
2015-May-13 10:33N 37°12' E 011°32'1515.1
2015-May-13 09:33N 37°19' E 011°15'1515.0
2015-May-13 08:33N 37°24' E 010°58'1515.1
2015-May-13 07:33N 37°29' E 010°40'1515.4
2015-May-13 06:33N 37°33' E 010°21'1515.4
2015-May-13 05:33N 37°34' E 010°02'1515.3
2015-May-13 04:33N 37°29' E 009°43'3015.3
2015-May-13 02:33N 37°19' E 009°07'1515.1
2015-May-13 01:33N 37°17' E 008°48'1615.2
2015-May-13 00:31N 37°17' E 008°28'1515.6
2015-May-12 23:33N 37°18' E 008°10'1715.3
2015-May-12 22:25N 37°18' E 007°48'18115.3
2015-May-12 10:32N 37°09' E 004°01'1515.1
2015-May-12 09:33N 37°06' E 003°42'1515.3
2015-May-12 08:33N 37°04' E 003°23'1615.5
2015-May-12 07:33N 37°02' E 003°04'1615.5
2015-May-12 06:31N 36°60' E 002°44'1615.1
2015-May-12 05:26N 36°56' E 002°24'1315.0
2015-May-12 04:33N 36°53' E 002°08'1515.0
2015-May-12 03:33N 36°51' E 001°50'1515.3
2015-May-12 02:33N 36°48' E 001°31'1615.8
2015-May-12 01:33N 36°46' E 001°11'1815.7
2015-May-12 00:24N 36°44' E 000°49'1315.1
2015-May-11 23:34N 36°42' E 000°33'1514.8
2015-May-11 22:33N 36°41' E 000°15'1514.6
2015-May-11 21:33N 36°38' W 000°03'1414.3
2015-May-11 20:33N 36°36' W 000°21'1414.1
2015-May-11 19:33N 36°34' W 000°38'1414.1
2015-May-11 18:33N 36°32' W 000°56'1413.8
2015-May-11 17:33N 36°30' W 001°13'1414.0
2015-May-11 16:33N 36°28' W 001°30'3113.7
2015-May-11 14:18N 36°24' W 002°08'1013.6
2015-May-11 13:34N 36°22' W 002°20'1413.9
2015-May-11 12:33N 36°20' W 002°37'1413.8
2015-May-11 11:31N 36°17' W 002°55'11614.6
2015-May-11 03:34N 35°60' W 005°17'10114.1
2015-May-10 20:26N 35°43' W 007°19'1314.7
2015-May-10 19:33N 35°41' W 007°35'1515.1
2015-May-10 18:33N 35°38' W 007°53'3614.8
2015-May-10 16:08N 35°31' W 008°37'814.7
2015-May-10 15:33N 35°29' W 008°47'11714.3
2015-May-10 07:22N 35°06' W 011°07'2513.8
2015-May-10 05:33N 35°00' W 011°37'1813.7
2015-May-10 04:14N 34°56' W 011°58'1013.9
2015-May-10 03:32N 34°54' W 012°10'1913.8
2015-May-10 02:07N 34°49' W 012°33'18913.4
2015-May-09 12:00N 34°12' W 016°18'58814.0 230 / 161024.610.8 0.520.010.921.0
2015-May-07 18:00N 32°00' W 027°42'   360 / 91020.010.8 0.522.017.221.0

Dump ship's entire track history